sensor_id;sensor_type;location;lat;lon;timestamp;temperature;humidity
9723;DHT22;4900;49.306;8.500;2023-05-10T00:01:04;16.28;79.72
9723;DHT22;4900;49.306;8.500;2023-05-10T00:03:29;16.30;79.57
9723;DHT22;4900;49.306;8.500;2023-05-10T00:05:55;16.30;79.60
9723;DHT22;4900;49.306;8.500;2023-05-10T00:08:20;16.29;79.52
9723;DHT22;4900;49.306;8.500;2023-05-10T00:10:45;16.26;79.65
9723;DHT22;4900;49.306;8.500;2023-05-10T00:13:11;16.26;79.64
9723;DHT22;4900;49.306;8.500;2023-05-10T00:15:36;16.16;79.69
9723;DHT22;4900;49.306;8.500;2023-05-10T00:18:02;16.22;79.58
9723;DHT22;4900;49.306;8.500;2023-05-10T00:20:27;16.19;79.57
9723;DHT22;4900;49.306;8.500;2023-05-10T00:22:53;16.21;79.74
9723;DHT22;4900;49.306;8.500;2023-05-10T00:25:18;16.25;79.47
9723;DHT22;4900;49.306;8.500;2023-05-10T00:27:44;16.25;79.38
9723;DHT22;4900;49.306;8.500;2023-05-10T00:30:09;16.25;79.40
9723;DHT22;4900;49.306;8.500;2023-05-10T00:32:35;16.22;79.54
9723;DHT22;4900;49.306;8.500;2023-05-10T00:35:00;16.19;79.58
9723;DHT22;4900;49.306;8.500;2023-05-10T00:37:26;16.19;79.58
9723;DHT22;4900;49.306;8.500;2023-05-10T00:39:51;16.21;79.57
9723;DHT22;4900;49.306;8.500;2023-05-10T00:42:17;16.21;79.59
9723;DHT22;4900;49.306;8.500;2023-05-10T00:44:42;16.22;79.58
9723;DHT22;4900;49.306;8.500;2023-05-10T00:47:08;16.18;79.70
9723;DHT22;4900;49.306;8.500;2023-05-10T00:49:34;16.15;79.66
9723;DHT22;4900;49.306;8.500;2023-05-10T00:52:00;16.13;79.86
9723;DHT22;4900;49.306;8.500;2023-05-10T00:54:27;16.13;79.92
9723;DHT22;4900;49.306;8.500;2023-05-10T00:56:52;16.13;79.85
9723;DHT22;4900;49.306;8.500;2023-05-10T00:59:19;16.16;79.80
9723;DHT22;4900;49.306;8.500;2023-05-10T01:01:45;16.15;79.71
9723;DHT22;4900;49.306;8.500;2023-05-10T01:04:12;16.11;79.76
9723;DHT22;4900;49.306;8.500;2023-05-10T01:06:39;16.08;79.87
9723;DHT22;4900;49.306;8.500;2023-05-10T01:09:05;16.02;79.77
9723;DHT22;4900;49.306;8.500;2023-05-10T01:11:33;16.04;79.83
9723;DHT22;4900;49.306;8.500;2023-05-10T01:13:59;15.95;80.01
9723;DHT22;4900;49.306;8.500;2023-05-10T01:16:26;15.96;79.93
9723;DHT22;4900;49.306;8.500;2023-05-10T01:18:52;15.99;79.69
9723;DHT22;4900;49.306;8.500;2023-05-10T01:24:11;15.88;79.68
9723;DHT22;4900;49.306;8.500;2023-05-10T01:29:37;15.87;79.61
9723;DHT22;4900;49.306;8.500;2023-05-10T01:32:23;15.89;79.49
9723;DHT22;4900;49.306;8.500;2023-05-10T01:34:58;15.85;79.38
9723;DHT22;4900;49.306;8.500;2023-05-10T01:37:34;15.74;79.66
9723;DHT22;4900;49.306;8.500;2023-05-10T01:40:10;15.82;79.46
9723;DHT22;4900;49.306;8.500;2023-05-10T01:42:47;15.79;79.47
9723;DHT22;4900;49.306;8.500;2023-05-10T01:45:39;15.74;79.42
9723;DHT22;4900;49.306;8.500;2023-05-10T01:48:09;15.74;79.33
9723;DHT22;4900;49.306;8.500;2023-05-10T01:50:38;15.79;79.15
9723;DHT22;4900;49.306;8.500;2023-05-10T01:53:07;15.78;78.99
9723;DHT22;4900;49.306;8.500;2023-05-10T01:55:36;15.78;79.00
9723;DHT22;4900;49.306;8.500;2023-05-10T01:58:10;15.75;78.90
9723;DHT22;4900;49.306;8.500;2023-05-10T02:00:40;15.74;78.82
9723;DHT22;4900;49.306;8.500;2023-05-10T02:03:08;15.73;78.82
9723;DHT22;4900;49.306;8.500;2023-05-10T02:05:35;15.67;78.84
9723;DHT22;4900;49.306;8.500;2023-05-10T02:08:02;15.64;78.84
9723;DHT22;4900;49.306;8.500;2023-05-10T02:10:32;15.57;78.88
9723;DHT22;4900;49.306;8.500;2023-05-10T02:12:58;15.59;79.00
9723;DHT22;4900;49.306;8.500;2023-05-10T02:15:25;15.57;79.08
9723;DHT22;4900;49.306;8.500;2023-05-10T02:17:52;15.59;79.22
9723;DHT22;4900;49.306;8.500;2023-05-10T02:20:20;15.57;79.35
9723;DHT22;4900;49.306;8.500;2023-05-10T02:22:47;15.61;79.29
9723;DHT22;4900;49.306;8.500;2023-05-10T02:25:13;15.66;79.25
9723;DHT22;4900;49.306;8.500;2023-05-10T02:27:41;15.64;79.33
9723;DHT22;4900;49.306;8.500;2023-05-10T02:30:07;15.67;79.41
9723;DHT22;4900;49.306;8.500;2023-05-10T02:32:34;15.73;79.39
9723;DHT22;4900;49.306;8.500;2023-05-10T02:35:02;15.70;79.46
9723;DHT22;4900;49.306;8.500;2023-05-10T02:37:28;15.75;79.42
9723;DHT22;4900;49.306;8.500;2023-05-10T02:39:55;15.79;79.44
9723;DHT22;4900;49.306;8.500;2023-05-10T02:42:24;15.77;79.37
9723;DHT22;4900;49.306;8.500;2023-05-10T02:44:54;15.77;79.54
9723;DHT22;4900;49.306;8.500;2023-05-10T02:47:21;15.81;79.49
9723;DHT22;4900;49.306;8.500;2023-05-10T02:49:47;15.81;79.49
9723;DHT22;4900;49.306;8.500;2023-05-10T02:52:16;15.79;79.47
9723;DHT22;4900;49.306;8.500;2023-05-10T02:54:45;15.78;79.62
9723;DHT22;4900;49.306;8.500;2023-05-10T02:57:16;15.78;79.60
9723;DHT22;4900;49.306;8.500;2023-05-10T02:59:45;15.77;79.58
9723;DHT22;4900;49.306;8.500;2023-05-10T03:02:14;15.74;79.55
9723;DHT22;4900;49.306;8.500;2023-05-10T03:04:39;15.71;79.61
9723;DHT22;4900;49.306;8.500;2023-05-10T03:07:05;15.64;79.72
9723;DHT22;4900;49.306;8.500;2023-05-10T03:09:32;15.59;79.74
9723;DHT22;4900;49.306;8.500;2023-05-10T03:12:07;15.53;79.93
9723;DHT22;4900;49.306;8.500;2023-05-10T03:17:35;15.38;80.30
9723;DHT22;4900;49.306;8.500;2023-05-10T03:20:10;15.38;80.39
9723;DHT22;4900;49.306;8.500;2023-05-10T03:22:50;15.33;80.29
9723;DHT22;4900;49.306;8.500;2023-05-10T03:25:16;15.32;80.43
9723;DHT22;4900;49.306;8.500;2023-05-10T03:27:43;15.31;80.35
9723;DHT22;4900;49.306;8.500;2023-05-10T03:30:12;15.28;80.51
9723;DHT22;4900;49.306;8.500;2023-05-10T03:32:38;15.29;80.72
9723;DHT22;4900;49.306;8.500;2023-05-10T03:35:11;15.33;80.75
9723;DHT22;4900;49.306;8.500;2023-05-10T03:37:37;15.35;80.68
9723;DHT22;4900;49.306;8.500;2023-05-10T03:40:03;15.36;80.55
9723;DHT22;4900;49.306;8.500;2023-05-10T03:42:29;15.33;80.42
9723;DHT22;4900;49.306;8.500;2023-05-10T03:44:55;15.31;80.30
9723;DHT22;4900;49.306;8.500;2023-05-10T03:47:20;15.28;80.07
9723;DHT22;4900;49.306;8.500;2023-05-10T03:49:45;15.22;80.07
9723;DHT22;4900;49.306;8.500;2023-05-10T03:52:11;15.20;79.95
9723;DHT22;4900;49.306;8.500;2023-05-10T03:54:37;15.16;79.97
9723;DHT22;4900;49.306;8.500;2023-05-10T03:57:02;15.14;79.98
9723;DHT22;4900;49.306;8.500;2023-05-10T03:59:28;15.09;80.12
9723;DHT22;4900;49.306;8.500;2023-05-10T04:01:53;15.08;80.21
9723;DHT22;4900;49.306;8.500;2023-05-10T04:04:19;15.11;80.34
9723;DHT22;4900;49.306;8.500;2023-05-10T04:06:46;15.09;80.38
9723;DHT22;4900;49.306;8.500;2023-05-10T04:09:11;15.11;80.47
9723;DHT22;4900;49.306;8.500;2023-05-10T04:11:36;15.08;80.57
9723;DHT22;4900;49.306;8.500;2023-05-10T04:14:02;15.09;80.59
9723;DHT22;4900;49.306;8.500;2023-05-10T04:16:27;15.08;80.55
9723;DHT22;4900;49.306;8.500;2023-05-10T04:18:53;15.05;80.66
9723;DHT22;4900;49.306;8.500;2023-05-10T04:21:19;15.05;80.83
9723;DHT22;4900;49.306;8.500;2023-05-10T04:23:44;15.02;81.20
9723;DHT22;4900;49.306;8.500;2023-05-10T04:26:10;15.05;81.33
9723;DHT22;4900;49.306;8.500;2023-05-10T04:28:35;15.06;81.49
9723;DHT22;4900;49.306;8.500;2023-05-10T04:31:05;15.12;81.31
9723;DHT22;4900;49.306;8.500;2023-05-10T04:33:31;15.11;81.43
9723;DHT22;4900;49.306;8.500;2023-05-10T04:35:57;15.18;81.48
9723;DHT22;4900;49.306;8.500;2023-05-10T04:38:22;15.20;81.49
9723;DHT22;4900;49.306;8.500;2023-05-10T04:40:48;15.22;81.44
9723;DHT22;4900;49.306;8.500;2023-05-10T04:43:13;15.25;81.39
9723;DHT22;4900;49.306;8.500;2023-05-10T04:45:39;15.31;81.40
9723;DHT22;4900;49.306;8.500;2023-05-10T04:48:04;15.32;81.34
9723;DHT22;4900;49.306;8.500;2023-05-10T04:50:30;15.38;81.30
9723;DHT22;4900;49.306;8.500;2023-05-10T04:52:55;15.39;81.30
9723;DHT22;4900;49.306;8.500;2023-05-10T04:55:21;15.44;81.27
9723;DHT22;4900;49.306;8.500;2023-05-10T04:57:46;15.44;81.25
9723;DHT22;4900;49.306;8.500;2023-05-10T05:00:12;15.51;81.21
9723;DHT22;4900;49.306;8.500;2023-05-10T05:02:38;15.53;81.13
9723;DHT22;4900;49.306;8.500;2023-05-10T05:05:04;15.57;80.90
9723;DHT22;4900;49.306;8.500;2023-05-10T05:07:29;15.57;80.85
9723;DHT22;4900;49.306;8.500;2023-05-10T05:09:56;15.64;80.59
9723;DHT22;4900;49.306;8.500;2023-05-10T05:12:21;15.73;80.32
9723;DHT22;4900;49.306;8.500;2023-05-10T05:14:46;15.75;80.20
9723;DHT22;4900;49.306;8.500;2023-05-10T05:17:12;15.78;80.06
9723;DHT22;4900;49.306;8.500;2023-05-10T05:19:37;15.78;79.99
9723;DHT22;4900;49.306;8.500;2023-05-10T05:22:03;15.82;79.86
9723;DHT22;4900;49.306;8.500;2023-05-10T05:24:28;15.89;79.70
9723;DHT22;4900;49.306;8.500;2023-05-10T05:26:53;15.99;79.47
9723;DHT22;4900;49.306;8.500;2023-05-10T05:29:19;16.06;79.31
9723;DHT22;4900;49.306;8.500;2023-05-10T05:31:44;16.13;79.14
9723;DHT22;4900;49.306;8.500;2023-05-10T05:34:10;16.22;78.93
9723;DHT22;4900;49.306;8.500;2023-05-10T05:36:36;16.34;78.59
9723;DHT22;4900;49.306;8.500;2023-05-10T05:39:03;16.43;78.41
9723;DHT22;4900;49.306;8.500;2023-05-10T05:41:29;16.51;78.27
9723;DHT22;4900;49.306;8.500;2023-05-10T05:43:54;16.63;77.92
9723;DHT22;4900;49.306;8.500;2023-05-10T05:46:20;16.74;77.68
9723;DHT22;4900;49.306;8.500;2023-05-10T05:48:45;16.83;77.42
9723;DHT22;4900;49.306;8.500;2023-05-10T05:51:11;16.91;77.27
9723;DHT22;4900;49.306;8.500;2023-05-10T05:53:36;17.02;76.99
9723;DHT22;4900;49.306;8.500;2023-05-10T05:56:02;17.11;76.69
9723;DHT22;4900;49.306;8.500;2023-05-10T05:58:27;17.18;76.42
9723;DHT22;4900;49.306;8.500;2023-05-10T06:00:53;17.22;76.27
9723;DHT22;4900;49.306;8.500;2023-05-10T06:03:19;17.22;76.24
9723;DHT22;4900;49.306;8.500;2023-05-10T06:05:44;17.20;76.13
9723;DHT22;4900;49.306;8.500;2023-05-10T06:08:10;17.27;76.10
9723;DHT22;4900;49.306;8.500;2023-05-10T06:10:36;17.26;76.09
9723;DHT22;4900;49.306;8.500;2023-05-10T06:13:04;17.24;76.04
9723;DHT22;4900;49.306;8.500;2023-05-10T06:15:30;17.37;75.85
9723;DHT22;4900;49.306;8.500;2023-05-10T06:17:55;17.43;75.83
9723;DHT22;4900;49.306;8.500;2023-05-10T06:20:21;17.53;75.66
9723;DHT22;4900;49.306;8.500;2023-05-10T06:22:47;17.61;75.36
9723;DHT22;4900;49.306;8.500;2023-05-10T06:25:12;17.68;75.22
9723;DHT22;4900;49.306;8.500;2023-05-10T06:27:39;17.78;74.96
9723;DHT22;4900;49.306;8.500;2023-05-10T06:30:05;17.91;74.71
9723;DHT22;4900;49.306;8.500;2023-05-10T06:32:31;18.02;74.47
9723;DHT22;4900;49.306;8.500;2023-05-10T06:34:56;18.09;74.06
9723;DHT22;4900;49.306;8.500;2023-05-10T06:37:21;18.13;73.82
9723;DHT22;4900;49.306;8.500;2023-05-10T06:39:47;18.30;73.40
9723;DHT22;4900;49.306;8.500;2023-05-10T06:42:12;18.40;73.04
9723;DHT22;4900;49.306;8.500;2023-05-10T06:44:38;18.46;72.55
9723;DHT22;4900;49.306;8.500;2023-05-10T06:47:03;18.53;72.54
9723;DHT22;4900;49.306;8.500;2023-05-10T06:49:29;18.61;72.30
9723;DHT22;4900;49.306;8.500;2023-05-10T06:51:57;18.76;71.82
9723;DHT22;4900;49.306;8.500;2023-05-10T06:54:23;18.92;71.33
9723;DHT22;4900;49.306;8.500;2023-05-10T06:56:49;19.07;70.63
9723;DHT22;4900;49.306;8.500;2023-05-10T06:59:14;19.10;70.46
9723;DHT22;4900;49.306;8.500;2023-05-10T07:01:42;19.33;69.89
9723;DHT22;4900;49.306;8.500;2023-05-10T07:04:07;19.46;69.41
9723;DHT22;4900;49.306;8.500;2023-05-10T07:06:33;19.37;69.00
9723;DHT22;4900;49.306;8.500;2023-05-10T07:08:59;19.48;69.01
9723;DHT22;4900;49.306;8.500;2023-05-10T07:11:24;19.58;68.65
9723;DHT22;4900;49.306;8.500;2023-05-10T07:13:49;19.47;68.64
9723;DHT22;4900;49.306;8.500;2023-05-10T07:16:15;19.51;68.43
9723;DHT22;4900;49.306;8.500;2023-05-10T07:18:40;19.48;68.56
9723;DHT22;4900;49.306;8.500;2023-05-10T07:21:06;19.67;68.15
9723;DHT22;4900;49.306;8.500;2023-05-10T07:23:31;19.72;67.78
9723;DHT22;4900;49.306;8.500;2023-05-10T07:25:57;19.93;67.28
9723;DHT22;4900;49.306;8.500;2023-05-10T07:28:23;20.24;66.65
9723;DHT22;4900;49.306;8.500;2023-05-10T07:30:49;20.54;65.88
9723;DHT22;4900;49.306;8.500;2023-05-10T07:33:14;20.74;65.62
9723;DHT22;4900;49.306;8.500;2023-05-10T07:35:41;20.92;64.93
9723;DHT22;4900;49.306;8.500;2023-05-10T07:38:06;21.07;64.41
9723;DHT22;4900;49.306;8.500;2023-05-10T07:40:31;21.29;63.58
9723;DHT22;4900;49.306;8.500;2023-05-10T07:42:57;21.61;62.72
9723;DHT22;4900;49.306;8.500;2023-05-10T07:45:23;21.69;61.87
9723;DHT22;4900;49.306;8.500;2023-05-10T07:47:48;21.92;61.65
9723;DHT22;4900;49.306;8.500;2023-05-10T07:50:14;21.75;61.10
9723;DHT22;4900;49.306;8.500;2023-05-10T07:52:39;21.92;60.63
9723;DHT22;4900;49.306;8.500;2023-05-10T07:55:05;21.95;60.63
9723;DHT22;4900;49.306;8.500;2023-05-10T07:57:33;21.95;60.35
9723;DHT22;4900;49.306;8.500;2023-05-10T07:59:59;21.82;60.40
9723;DHT22;4900;49.306;8.500;2023-05-10T08:02:25;21.69;60.26
9723;DHT22;4900;49.306;8.500;2023-05-10T08:04:50;21.69;60.08
9723;DHT22;4900;49.306;8.500;2023-05-10T08:07:17;21.88;60.07
9723;DHT22;4900;49.306;8.500;2023-05-10T08:09:42;22.34;59.56
9723;DHT22;4900;49.306;8.500;2023-05-10T08:12:08;22.50;59.17
9723;DHT22;4900;49.306;8.500;2023-05-10T08:14:33;22.82;58.71
9723;DHT22;4900;49.306;8.500;2023-05-10T08:16:59;22.99;57.67
9723;DHT22;4900;49.306;8.500;2023-05-10T08:19:24;23.19;56.78
9723;DHT22;4900;49.306;8.500;2023-05-10T08:21:49;23.68;56.01
9723;DHT22;4900;49.306;8.500;2023-05-10T08:24:15;23.84;55.25
9723;DHT22;4900;49.306;8.500;2023-05-10T08:26:40;24.30;54.89
9723;DHT22;4900;49.306;8.500;2023-05-10T08:29:06;24.36;53.94
9723;DHT22;4900;49.306;8.500;2023-05-10T08:31:31;24.48;53.47
9723;DHT22;4900;49.306;8.500;2023-05-10T08:33:57;24.95;53.28
9723;DHT22;4900;49.306;8.500;2023-05-10T08:36:22;25.20;52.45
9723;DHT22;4900;49.306;8.500;2023-05-10T08:38:52;25.53;51.49
9723;DHT22;4900;49.306;8.500;2023-05-10T08:41:22;25.51;50.60
9723;DHT22;4900;49.306;8.500;2023-05-10T08:43:53;25.71;49.50
9723;DHT22;4900;49.306;8.500;2023-05-10T08:46:20;25.40;49.39
9723;DHT22;4900;49.306;8.500;2023-05-10T08:48:47;25.06;49.60
9723;DHT22;4900;49.306;8.500;2023-05-10T08:51:22;24.71;49.78
9723;DHT22;4900;49.306;8.500;2023-05-10T08:53:47;24.26;50.36
9723;DHT22;4900;49.306;8.500;2023-05-10T08:56:13;23.52;51.43
9723;DHT22;4900;49.306;8.500;2023-05-10T08:58:41;23.23;52.24
9723;DHT22;4900;49.306;8.500;2023-05-10T09:01:07;23.13;52.33
9723;DHT22;4900;49.306;8.500;2023-05-10T09:03:32;23.03;52.60
9723;DHT22;4900;49.306;8.500;2023-05-10T09:05:58;23.24;52.73
9723;DHT22;4900;49.306;8.500;2023-05-10T09:08:24;23.13;52.25
9723;DHT22;4900;49.306;8.500;2023-05-10T09:10:54;23.28;52.24
9723;DHT22;4900;49.306;8.500;2023-05-10T09:13:21;23.52;52.08
9723;DHT22;4900;49.306;8.500;2023-05-10T09:15:47;23.72;52.24
9723;DHT22;4900;49.306;8.500;2023-05-10T09:18:13;23.89;51.58
9723;DHT22;4900;49.306;8.500;2023-05-10T09:20:38;24.40;50.90
9723;DHT22;4900;49.306;8.500;2023-05-10T09:23:04;24.57;50.02
9723;DHT22;4900;49.306;8.500;2023-05-10T09:25:30;24.48;49.63
9723;DHT22;4900;49.306;8.500;2023-05-10T09:27:55;24.69;49.19
9723;DHT22;4900;49.306;8.500;2023-05-10T09:30:29;25.07;47.75
9723;DHT22;4900;49.306;8.500;2023-05-10T09:32:56;25.10;47.74
9723;DHT22;4900;49.306;8.500;2023-05-10T09:35:24;25.09;47.53
9723;DHT22;4900;49.306;8.500;2023-05-10T09:37:51;24.96;47.30
9723;DHT22;4900;49.306;8.500;2023-05-10T09:40:18;25.17;47.48
9723;DHT22;4900;49.306;8.500;2023-05-10T09:43:07;25.40;46.68
9723;DHT22;4900;49.306;8.500;2023-05-10T09:45:33;25.54;46.19
9723;DHT22;4900;49.306;8.500;2023-05-10T09:48:01;25.69;45.75
9723;DHT22;4900;49.306;8.500;2023-05-10T09:50:28;25.77;45.29
9723;DHT22;4900;49.306;8.500;2023-05-10T09:52:57;25.77;45.39
9723;DHT22;4900;49.306;8.500;2023-05-10T09:55:25;26.00;45.57
9723;DHT22;4900;49.306;8.500;2023-05-10T09:58:01;25.53;45.23
9723;DHT22;4900;49.306;8.500;2023-05-10T10:00:35;25.69;45.26
9723;DHT22;4900;49.306;8.500;2023-05-10T10:03:01;25.97;45.28
9723;DHT22;4900;49.306;8.500;2023-05-10T10:05:35;26.30;45.19
9723;DHT22;4900;49.306;8.500;2023-05-10T10:08:05;26.39;44.03
9723;DHT22;4900;49.306;8.500;2023-05-10T10:10:32;26.67;43.15
9723;DHT22;4900;49.306;8.500;2023-05-10T10:12:58;27.13;42.17
9723;DHT22;4900;49.306;8.500;2023-05-10T10:15:23;27.54;41.90
9723;DHT22;4900;49.306;8.500;2023-05-10T10:17:50;27.92;41.14
9723;DHT22;4900;49.306;8.500;2023-05-10T10:20:17;28.14;39.86
9723;DHT22;4900;49.306;8.500;2023-05-10T10:22:43;28.49;39.66
9723;DHT22;4900;49.306;8.500;2023-05-10T10:25:10;29.10;39.11
9723;DHT22;4900;49.306;8.500;2023-05-10T10:35:25;29.37;37.88
9723;DHT22;4900;49.306;8.500;2023-05-10T10:37:51;29.44;38.15
9723;DHT22;4900;49.306;8.500;2023-05-10T10:40:33;29.44;37.81
9723;DHT22;4900;49.306;8.500;2023-05-10T10:43:28;29.36;37.16
9723;DHT22;4900;49.306;8.500;2023-05-10T10:48:40;29.02;36.59
9723;DHT22;4900;49.306;8.500;2023-05-10T10:51:05;28.93;37.10
9723;DHT22;4900;49.306;8.500;2023-05-10T10:53:31;28.75;36.89
9723;DHT22;4900;49.306;8.500;2023-05-10T10:56:08;28.30;37.93
9723;DHT22;4900;49.306;8.500;2023-05-10T10:58:36;28.09;38.51
9723;DHT22;4900;49.306;8.500;2023-05-10T11:01:18;27.31;39.18
9723;DHT22;4900;49.306;8.500;2023-05-10T11:06:31;26.89;40.08
9723;DHT22;4900;49.306;8.500;2023-05-10T11:08:57;27.07;40.21
9723;DHT22;4900;49.306;8.500;2023-05-10T11:11:23;27.47;40.01
9723;DHT22;4900;49.306;8.500;2023-05-10T11:13:49;27.50;39.91
9723;DHT22;4900;49.306;8.500;2023-05-10T11:16:22;27.81;39.26
9723;DHT22;4900;49.306;8.500;2023-05-10T11:19:11;28.09;38.91
9723;DHT22;4900;49.306;8.500;2023-05-10T11:24:30;28.21;38.71
9723;DHT22;4900;49.306;8.500;2023-05-10T11:26:56;28.44;37.98
9723;DHT22;4900;49.306;8.500;2023-05-10T11:29:22;28.33;38.10
9723;DHT22;4900;49.306;8.500;2023-05-10T11:31:49;28.47;38.09
9723;DHT22;4900;49.306;8.500;2023-05-10T11:34:30;28.30;37.94
9723;DHT22;4900;49.306;8.500;2023-05-10T11:36:59;28.26;38.19
9723;DHT22;4900;49.306;8.500;2023-05-10T11:39:31;27.89;38.48
9723;DHT22;4900;49.306;8.500;2023-05-10T11:41:58;27.33;39.45
9723;DHT22;4900;49.306;8.500;2023-05-10T11:44:31;26.98;40.01
9723;DHT22;4900;49.306;8.500;2023-05-10T11:47:01;26.51;40.56
9723;DHT22;4900;49.306;8.500;2023-05-10T11:49:26;25.96;41.05
9723;DHT22;4900;49.306;8.500;2023-05-10T11:51:52;25.90;40.96
9723;DHT22;4900;49.306;8.500;2023-05-10T11:54:17;24.94;42.27
9723;DHT22;4900;49.306;8.500;2023-05-10T11:56:43;24.52;42.89
9723;DHT22;4900;49.306;8.500;2023-05-10T11:59:09;24.27;43.65
9723;DHT22;4900;49.306;8.500;2023-05-10T12:01:35;24.21;43.94
9723;DHT22;4900;49.306;8.500;2023-05-10T12:04:01;24.73;43.59
9723;DHT22;4900;49.306;8.500;2023-05-10T12:06:29;24.89;43.29
9723;DHT22;4900;49.306;8.500;2023-05-10T12:08:56;25.16;43.22
9723;DHT22;4900;49.306;8.500;2023-05-10T12:11:24;25.12;42.07
9723;DHT22;4900;49.306;8.500;2023-05-10T12:13:50;25.44;41.43
9723;DHT22;4900;49.306;8.500;2023-05-10T12:16:18;25.69;40.71
9723;DHT22;4900;49.306;8.500;2023-05-10T12:18:45;25.58;40.47
9723;DHT22;4900;49.306;8.500;2023-05-10T12:21:13;25.19;40.13
9723;DHT22;4900;49.306;8.500;2023-05-10T12:23:40;25.22;40.12
9723;DHT22;4900;49.306;8.500;2023-05-10T12:26:08;26.00;39.36
9723;DHT22;4900;49.306;8.500;2023-05-10T12:28:34;26.19;38.91
9723;DHT22;4900;49.306;8.500;2023-05-10T12:31:01;26.75;38.76
9723;DHT22;4900;49.306;8.500;2023-05-10T12:33:27;27.57;38.02
9723;DHT22;4900;49.306;8.500;2023-05-10T12:36:00;28.03;37.35
9723;DHT22;4900;49.306;8.500;2023-05-10T12:38:26;28.26;36.65
9723;DHT22;4900;49.306;8.500;2023-05-10T12:40:52;28.41;35.63
9723;DHT22;4900;49.306;8.500;2023-05-10T12:43:17;28.26;35.23
9723;DHT22;4900;49.306;8.500;2023-05-10T12:45:43;28.83;34.71
9723;DHT22;4900;49.306;8.500;2023-05-10T12:48:13;29.20;34.55
9723;DHT22;4900;49.306;8.500;2023-05-10T12:50:38;29.43;34.63
9723;DHT22;4900;49.306;8.500;2023-05-10T12:53:04;29.44;34.47
9723;DHT22;4900;49.306;8.500;2023-05-10T12:55:29;29.09;34.76
9723;DHT22;4900;49.306;8.500;2023-05-10T12:57:54;29.04;34.73
9723;DHT22;4900;49.306;8.500;2023-05-10T13:00:20;28.99;34.44
9723;DHT22;4900;49.306;8.500;2023-05-10T13:02:45;29.20;33.80
9723;DHT22;4900;49.306;8.500;2023-05-10T13:05:11;29.36;33.73
9723;DHT22;4900;49.306;8.500;2023-05-10T13:07:38;29.30;33.05
9723;DHT22;4900;49.306;8.500;2023-05-10T13:10:05;29.04;32.97
9723;DHT22;4900;49.306;8.500;2023-05-10T13:12:32;29.20;32.88
9723;DHT22;4900;49.306;8.500;2023-05-10T13:14:58;29.11;32.79
9723;DHT22;4900;49.306;8.500;2023-05-10T13:17:25;29.25;32.70
9723;DHT22;4900;49.306;8.500;2023-05-10T13:19:52;29.26;33.02
9723;DHT22;4900;49.306;8.500;2023-05-10T13:22:17;29.26;33.08
9723;DHT22;4900;49.306;8.500;2023-05-10T13:24:43;28.96;33.09
9723;DHT22;4900;49.306;8.500;2023-05-10T13:27:08;29.48;33.02
9723;DHT22;4900;49.306;8.500;2023-05-10T13:29:34;29.27;33.06
9723;DHT22;4900;49.306;8.500;2023-05-10T13:31:59;29.55;32.74
9723;DHT22;4900;49.306;8.500;2023-05-10T13:34:26;29.58;32.54
9723;DHT22;4900;49.306;8.500;2023-05-10T13:36:53;29.38;32.67
9723;DHT22;4900;49.306;8.500;2023-05-10T13:39:20;29.23;33.39
9723;DHT22;4900;49.306;8.500;2023-05-10T13:41:45;29.50;32.94
9723;DHT22;4900;49.306;8.500;2023-05-10T13:44:12;29.55;32.84
9723;DHT22;4900;49.306;8.500;2023-05-10T13:46:38;29.66;32.74
9723;DHT22;4900;49.306;8.500;2023-05-10T13:49:04;29.54;32.23
9723;DHT22;4900;49.306;8.500;2023-05-10T13:51:29;29.64;32.21
9723;DHT22;4900;49.306;8.500;2023-05-10T13:53:57;29.95;31.84
9723;DHT22;4900;49.306;8.500;2023-05-10T13:56:24;30.03;31.81
9723;DHT22;4900;49.306;8.500;2023-05-10T13:58:49;29.65;31.80
9723;DHT22;4900;49.306;8.500;2023-05-10T14:01:15;29.92;31.55
9723;DHT22;4900;49.306;8.500;2023-05-10T14:03:41;30.12;31.78
9723;DHT22;4900;49.306;8.500;2023-05-10T14:06:07;30.12;31.82
9723;DHT22;4900;49.306;8.500;2023-05-10T14:08:33;30.09;31.23
9723;DHT22;4900;49.306;8.500;2023-05-10T14:10:59;29.93;31.50
9723;DHT22;4900;49.306;8.500;2023-05-10T14:13:25;29.72;31.34
9723;DHT22;4900;49.306;8.500;2023-05-10T14:15:50;29.43;31.60
9723;DHT22;4900;49.306;8.500;2023-05-10T14:18:16;29.61;31.73
9723;DHT22;4900;49.306;8.500;2023-05-10T14:20:42;29.34;31.77
9723;DHT22;4900;49.306;8.500;2023-05-10T14:23:08;29.41;31.86
9723;DHT22;4900;49.306;8.500;2023-05-10T14:25:33;29.45;31.88
9723;DHT22;4900;49.306;8.500;2023-05-10T14:27:59;29.82;31.66
9723;DHT22;4900;49.306;8.500;2023-05-10T14:30:25;30.07;31.03
9723;DHT22;4900;49.306;8.500;2023-05-10T14:32:50;30.51;31.05
9723;DHT22;4900;49.306;8.500;2023-05-10T14:35:16;30.17;30.44
9723;DHT22;4900;49.306;8.500;2023-05-10T14:37:45;30.17;30.55
9723;DHT22;4900;49.306;8.500;2023-05-10T14:40:11;30.09;30.63
9723;DHT22;4900;49.306;8.500;2023-05-10T14:42:37;30.20;30.45
9723;DHT22;4900;49.306;8.500;2023-05-10T14:45:03;30.24;30.09
9723;DHT22;4900;49.306;8.500;2023-05-10T14:47:29;30.31;30.29
9723;DHT22;4900;49.306;8.500;2023-05-10T14:49:55;30.36;30.10
9723;DHT22;4900;49.306;8.500;2023-05-10T14:52:20;29.98;30.60
9723;DHT22;4900;49.306;8.500;2023-05-10T14:54:46;30.17;30.83
9723;DHT22;4900;49.306;8.500;2023-05-10T14:57:11;29.82;30.69
9723;DHT22;4900;49.306;8.500;2023-05-10T14:59:37;29.71;30.81
9723;DHT22;4900;49.306;8.500;2023-05-10T15:02:02;29.44;30.50
9723;DHT22;4900;49.306;8.500;2023-05-10T15:04:29;29.33;30.43
9723;DHT22;4900;49.306;8.500;2023-05-10T15:06:55;29.75;30.60
9723;DHT22;4900;49.306;8.500;2023-05-10T15:09:24;29.64;30.98
9723;DHT22;4900;49.306;8.500;2023-05-10T15:11:50;29.43;31.05
9723;DHT22;4900;49.306;8.500;2023-05-10T15:14:15;29.44;31.06
9723;DHT22;4900;49.306;8.500;2023-05-10T15:16:41;29.30;30.90
9723;DHT22;4900;49.306;8.500;2023-05-10T15:19:06;29.58;30.68
9723;DHT22;4900;49.306;8.500;2023-05-10T15:21:32;29.73;30.91
9723;DHT22;4900;49.306;8.500;2023-05-10T15:24:04;29.47;31.36
9723;DHT22;4900;49.306;8.500;2023-05-10T15:26:30;29.59;31.42
9723;DHT22;4900;49.306;8.500;2023-05-10T15:28:55;29.78;31.03
9723;DHT22;4900;49.306;8.500;2023-05-10T15:31:21;29.88;30.78
9723;DHT22;4900;49.306;8.500;2023-05-10T15:33:46;29.93;30.59
9723;DHT22;4900;49.306;8.500;2023-05-10T15:36:11;29.58;30.13
9723;DHT22;4900;49.306;8.500;2023-05-10T15:38:37;29.38;29.84
9723;DHT22;4900;49.306;8.500;2023-05-10T15:41:02;29.36;29.95
9723;DHT22;4900;49.306;8.500;2023-05-10T15:43:28;29.61;30.17
9723;DHT22;4900;49.306;8.500;2023-05-10T15:45:53;29.36;30.19
9723;DHT22;4900;49.306;8.500;2023-05-10T15:48:19;29.16;30.50
9723;DHT22;4900;49.306;8.500;2023-05-10T15:50:44;28.83;30.76
9723;DHT22;4900;49.306;8.500;2023-05-10T15:53:10;28.89;30.81
9723;DHT22;4900;49.306;8.500;2023-05-10T15:55:35;28.55;31.27
9723;DHT22;4900;49.306;8.500;2023-05-10T15:58:01;28.55;31.65
9723;DHT22;4900;49.306;8.500;2023-05-10T16:00:27;28.78;31.76
9723;DHT22;4900;49.306;8.500;2023-05-10T16:02:53;29.03;32.08
9723;DHT22;4900;49.306;8.500;2023-05-10T16:05:18;29.19;32.15
9723;DHT22;4900;49.306;8.500;2023-05-10T16:07:44;29.02;31.82
9723;DHT22;4900;49.306;8.500;2023-05-10T16:10:10;28.88;32.01
9723;DHT22;4900;49.306;8.500;2023-05-10T16:12:35;28.72;31.81
9723;DHT22;4900;49.306;8.500;2023-05-10T16:15:01;28.60;32.26
9723;DHT22;4900;49.306;8.500;2023-05-10T16:17:26;28.40;32.62
9723;DHT22;4900;49.306;8.500;2023-05-10T16:19:52;28.33;32.55
9723;DHT22;4900;49.306;8.500;2023-05-10T16:22:17;28.34;33.00
9723;DHT22;4900;49.306;8.500;2023-05-10T16:24:43;28.44;33.01